Time;durP1;ratioP1;P1;durP2;ratioP2;P2;SDS_P1;SDS_P2;PMS_P1;PMS_P2;Temp;Humidity;BMP_temperature;BMP_pressure;BME280_temperature;BME280_humidity;BME280_pressure;Samples;Min_cycle;Max_cycle;Signal;HPM_P1;HPM_P2
2024/02/25 00:02:17;;;;;;;4.88;4.40;;;3.60;99.90;;;;;;5045061;28;20201;-79
2024/02/25 00:04:44;;;;;;;2.72;2.63;;;3.70;99.90;;;;;;5037953;28;20308;-81
2024/02/25 00:07:11;;;;;;;11.02;4.75;;;3.60;99.90;;;;;;5046897;28;20207;-81
2024/02/25 00:09:38;;;;;;;4.55;4.22;;;3.50;99.90;;;;;;5058887;28;20240;-82
2024/02/25 00:12:06;;;;;;;2.25;2.15;;;3.30;99.90;;;;;;5053230;28;20208;-81
2024/02/25 00:14:33;;;;;;;33.95;5.78;;;3.40;99.90;;;;;;5057706;28;20231;-81
2024/02/25 00:17:00;;;;;;;4.32;3.97;;;3.40;99.90;;;;;;5049729;28;20240;-82
2024/02/25 00:19:29;;;;;;;6.63;4.72;;;3.30;99.90;;;;;;5058846;28;20271;-81
2024/02/25 00:21:58;;;;;;;4.32;4.07;;;3.30;99.90;;;;;;5054766;28;20196;-81
2024/02/25 00:24:25;;;;;;;8.43;7.80;;;3.30;99.90;;;;;;5055562;28;20234;-81
2024/02/25 00:26:51;;;;;;;4.43;3.90;;;3.30;99.90;;;;;;5049793;28;20268;-82
2024/02/25 00:29:18;;;;;;;2.70;2.50;;;3.20;99.90;;;;;;5040486;28;20227;-82
2024/02/25 00:31:45;;;;;;;4.60;4.20;;;3.20;99.90;;;;;;5050047;28;20200;-79
2024/02/25 00:34:13;;;;;;;4.72;4.40;;;3.20;99.90;;;;;;5042363;28;20223;-79
2024/02/25 00:36:40;;;;;;;2.45;2.35;;;3.30;99.90;;;;;;5047648;28;20211;-81
2024/02/25 00:39:08;;;;;;;3.72;3.53;;;3.40;99.90;;;;;;5043268;28;20275;-80
2024/02/25 00:41:35;;;;;;;6.32;4.30;;;3.30;99.90;;;;;;5048551;28;20288;-79
2024/02/25 00:44:02;;;;;;;9.15;4.72;;;3.20;99.90;;;;;;5041127;28;20196;-78
2024/02/25 00:46:29;;;;;;;6.45;2.88;;;3.20;99.90;;;;;;5026370;28;20271;-80
2024/02/25 00:48:59;;;;;;;3.65;3.45;;;3.30;99.90;;;;;;5041072;28;20228;-81
2024/02/25 00:51:27;;;;;;;27.33;5.38;;;3.10;99.90;;;;;;5041323;28;20246;-82
2024/02/25 00:53:54;;;;;;;4.28;3.88;;;3.00;99.90;;;;;;5041483;28;20433;-81
2024/02/25 00:56:21;;;;;;;23.40;4.63;;;3.00;99.90;;;;;;5036054;28;20201;-82
2024/02/25 00:58:48;;;;;;;5.50;4.97;;;3.10;99.90;;;;;;5035868;28;20397;-80
2024/02/25 01:01:15;;;;;;;7.68;6.05;;;3.10;99.90;;;;;;5041225;28;20201;-80
2024/02/25 01:03:43;;;;;;;9.25;8.00;;;3.00;99.90;;;;;;5057557;28;20207;-82
2024/02/25 01:06:10;;;;;;;2.47;1.75;;;3.00;99.90;;;;;;5062439;28;20208;-84
2024/02/25 01:08:41;;;;;;;3.90;3.70;;;3.00;99.90;;;;;;5064877;28;20204;-78
2024/02/25 01:11:09;;;;;;;5.20;4.80;;;2.90;99.90;;;;;;5062164;28;20200;-81
2024/02/25 01:13:36;;;;;;;5.88;5.50;;;3.10;99.90;;;;;;5050742;28;20199;-81
2024/02/25 01:16:04;;;;;;;34.15;3.03;;;2.90;99.90;;;;;;5053864;28;20208;-82
2024/02/25 01:18:32;;;;;;;3.53;3.30;;;3.00;99.90;;;;;;5044928;28;20271;-82
2024/02/25 01:20:59;;;;;;;2.67;2.58;;;2.90;99.90;;;;;;5046061;28;20205;-82
2024/02/25 01:23:26;;;;;;;3.10;2.45;;;2.80;99.90;;;;;;5042352;28;20272;-81
2024/02/25 01:25:53;;;;;;;8.20;6.22;;;2.60;99.90;;;;;;5042829;28;20224;-81
2024/02/25 01:28:21;;;;;;;3.53;2.75;;;2.70;99.90;;;;;;5043985;28;20211;-82
2024/02/25 01:30:48;;;;;;;8.27;4.13;;;2.50;99.90;;;;;;5048703;28;20203;-81
2024/02/25 01:33:15;;;;;;;8.60;5.68;;;2.40;99.90;;;;;;5045052;28;20476;-82
2024/02/25 01:35:45;;;;;;;3.70;3.05;;;2.40;99.90;;;;;;5044710;28;20400;-81
2024/02/25 01:38:12;;;;;;;1.88;1.77;;;2.40;99.90;;;;;;5053117;28;20278;-81
2024/02/25 01:40:39;;;;;;;7.72;4.22;;;2.30;99.90;;;;;;5039058;28;20214;-79
2024/02/25 01:43:14;;;;;;;3.88;3.67;;;2.30;99.90;;;;;;5050835;28;20261;-82
2024/02/25 01:45:42;;;;;;;4.40;4.10;;;2.50;99.90;;;;;;5044494;28;20635;-79
2024/02/25 01:48:09;;;;;;;3.97;3.70;;;2.40;99.90;;;;;;5042567;28;20220;-81
2024/02/25 01:50:38;;;;;;;7.28;5.82;;;2.30;99.90;;;;;;5044018;28;20263;-79
2024/02/25 01:53:07;;;;;;;7.60;5.32;;;2.20;99.90;;;;;;5052437;28;20207;-82
2024/02/25 01:55:35;;;;;;;3.42;3.22;;;2.10;99.90;;;;;;5049994;28;20202;-79
2024/02/25 01:58:03;;;;;;;6.57;4.07;;;2.10;99.90;;;;;;5040661;28;20201;-79
2024/02/25 02:00:31;;;;;;;11.93;2.72;;;2.10;99.90;;;;;;5043899;28;20200;-80
2024/02/25 02:03:01;;;;;;;94.30;7.35;;;2.20;99.90;;;;;;5042636;28;20219;-80
2024/02/25 02:05:28;;;;;;;4.32;4.13;;;2.30;99.90;;;;;;5045108;28;20224;-81
2024/02/25 02:07:56;;;;;;;6.38;5.82;;;2.40;99.90;;;;;;5045600;28;20197;-79
2024/02/25 02:10:23;;;;;;;3.95;3.72;;;2.50;99.90;;;;;;5054142;28;20263;-79
2024/02/25 02:12:50;;;;;;;4.95;4.47;;;2.60;99.90;;;;;;5044195;28;20242;-80
2024/02/25 02:15:17;;;;;;;7.65;5.75;;;2.60;99.90;;;;;;5055711;28;20232;-80
2024/02/25 02:17:44;;;;;;;4.05;3.85;;;2.60;99.90;;;;;;5050679;28;20366;-81
2024/02/25 02:20:15;;;;;;;1.80;1.70;;;2.60;99.90;;;;;;5059601;28;20203;-79
2024/02/25 02:22:43;;;;;;;2.67;2.47;;;2.50;99.90;;;;;;5059014;28;20393;-85
2024/02/25 02:25:11;;;;;;;5.32;4.93;;;2.60;99.90;;;;;;5044976;28;20289;-85
2024/02/25 02:27:39;;;;;;;6.65;5.20;;;2.80;99.90;;;;;;5061515;28;20224;-83
2024/02/25 02:30:07;;;;;;;3.28;3.08;;;2.70;99.90;;;;;;5050236;28;20234;-83
2024/02/25 02:32:35;;;;;;;5.43;5.03;;;2.50;99.90;;;;;;5037434;28;20488;-84
2024/02/25 02:35:04;;;;;;;6.85;5.32;;;2.60;99.90;;;;;;5053895;28;20264;-84
2024/02/25 02:37:32;;;;;;;5.03;4.65;;;2.60;99.90;;;;;;5051845;28;20242;-80
2024/02/25 02:39:59;;;;;;;3.72;3.53;;;2.60;99.90;;;;;;5057819;28;20211;-79
2024/02/25 02:42:28;;;;;;;9.88;3.45;;;2.30;99.90;;;;;;5053343;28;20212;-80
2024/02/25 02:44:56;;;;;;;5.47;4.32;;;2.40;99.90;;;;;;5038396;28;20248;-81
2024/02/25 02:47:23;;;;;;;3.80;3.60;;;2.50;99.90;;;;;;5043838;28;20203;-81
2024/02/25 02:49:50;;;;;;;7.10;6.32;;;2.30;99.90;;;;;;5046353;28;20338;-81
2024/02/25 02:52:18;;;;;;;3.88;3.63;;;2.30;99.90;;;;;;5044856;28;20424;-81
2024/02/25 02:54:45;;;;;;;4.57;4.35;;;2.20;99.90;;;;;;5050944;28;20228;-82
2024/02/25 02:57:12;;;;;;;6.20;3.42;;;2.00;99.90;;;;;;5049251;28;20564;-80
2024/02/25 02:59:39;;;;;;;4.22;4.03;;;2.10;99.90;;;;;;5056932;28;20204;-81
2024/02/25 03:02:06;;;;;;;4.55;4.25;;;2.10;99.90;;;;;;5049479;28;20235;-81
2024/02/25 03:04:36;;;;;;;4.82;4.55;;;2.10;99.90;;;;;;5046769;28;20196;-82
2024/02/25 03:07:03;;;;;;;5.75;5.40;;;2.10;99.90;;;;;;5050921;28;20216;-81
2024/02/25 03:09:30;;;;;;;3.75;3.55;;;2.20;99.90;;;;;;5042533;28;20302;-81
2024/02/25 03:11:57;;;;;;;6.30;3.97;;;2.00;99.90;;;;;;5048961;28;20263;-81
2024/02/25 03:14:25;;;;;;;7.22;6.47;;;2.20;99.90;;;;;;5050183;28;20389;-82
2024/02/25 03:16:52;;;;;;;6.72;6.22;;;2.20;99.90;;;;;;5043253;28;20204;-81
2024/02/25 03:19:19;;;;;;;7.20;5.60;;;2.20;99.90;;;;;;5044593;28;20205;-81
2024/02/25 03:21:48;;;;;;;16.77;6.47;;;2.10;99.90;;;;;;5045700;28;20196;-79
2024/02/25 03:24:15;;;;;;;4.45;4.05;;;2.00;99.90;;;;;;5050357;28;20205;-79
2024/02/25 03:26:47;;;;;;;6.55;4.05;;;2.10;99.90;;;;;;5049193;28;20245;-80
2024/02/25 03:29:14;;;;;;;3.00;2.88;;;2.10;99.90;;;;;;5063796;28;20291;-81
2024/02/25 03:31:41;;;;;;;5.13;4.72;;;2.20;99.90;;;;;;5050289;28;20300;-81
2024/02/25 03:34:08;;;;;;;6.00;4.32;;;2.10;99.90;;;;;;5058430;28;20296;-82
2024/02/25 03:36:36;;;;;;;3.80;3.50;;;2.10;99.90;;;;;;5075703;28;20184;-81
2024/02/25 03:39:03;;;;;;;5.40;5.10;;;2.20;99.90;;;;;;5065884;28;20197;-81
2024/02/25 03:41:30;;;;;;;6.53;6.03;;;2.20;99.90;;;;;;5062903;28;20488;-81
2024/02/25 03:43:57;;;;;;;3.33;2.83;;;2.20;99.90;;;;;;5056252;28;20250;-80
2024/02/25 03:46:24;;;;;;;4.63;4.05;;;2.10;99.90;;;;;;5045958;28;20251;-81
2024/02/25 03:48:52;;;;;;;3.40;3.28;;;2.10;99.90;;;;;;5042673;28;20268;-80
2024/02/25 03:51:19;;;;;;;3.45;3.25;;;2.00;99.90;;;;;;5050241;28;20546;-82
2024/02/25 03:53:46;;;;;;;7.10;6.57;;;2.10;99.90;;;;;;5054081;28;20196;-82
2024/02/25 03:56:13;;;;;;;7.93;7.13;;;2.00;99.90;;;;;;5053706;28;20248;-82
2024/02/25 03:58:40;;;;;;;5.55;4.97;;;1.90;99.90;;;;;;5046612;28;20224;-83
2024/02/25 04:01:07;;;;;;;5.13;4.82;;;1.80;99.90;;;;;;5045612;28;20262;-82
2024/02/25 04:03:34;;;;;;;6.78;3.17;;;1.60;99.90;;;;;;5052991;28;20248;-82
2024/02/25 04:06:01;;;;;;;6.72;5.97;;;1.70;99.90;;;;;;5039818;28;20229;-82
2024/02/25 04:08:28;;;;;;;6.13;5.72;;;1.70;99.90;;;;;;5056135;28;20199;-81
2024/02/25 04:10:56;;;;;;;3.30;3.17;;;1.80;99.90;;;;;;5059007;28;20245;-82
2024/02/25 04:13:23;;;;;;;3.25;3.05;;;1.90;99.90;;;;;;5052173;28;20207;-82
2024/02/25 04:15:50;;;;;;;2.35;2.22;;;1.90;99.90;;;;;;5049375;28;20251;-82
2024/02/25 04:18:17;;;;;;;6.05;5.38;;;2.10;99.90;;;;;;5047169;28;20228;-81
2024/02/25 04:20:44;;;;;;;3.05;2.85;;;2.30;99.90;;;;;;5048013;28;20195;-79
2024/02/25 04:23:11;;;;;;;3.97;3.75;;;2.50;99.90;;;;;;5053529;28;20219;-79
2024/02/25 04:25:38;;;;;;;3.55;3.35;;;2.60;99.90;;;;;;5051194;28;20226;-79
2024/02/25 04:28:05;;;;;;;2.45;2.35;;;2.90;99.90;;;;;;5051740;28;20230;-78
2024/02/25 04:30:33;;;;;;;8.40;5.88;;;2.90;99.90;;;;;;5058453;28;20209;-79
2024/02/25 04:33:00;;;;;;;3.80;3.33;;;3.00;99.90;;;;;;5048714;28;20204;-79
2024/02/25 04:35:27;;;;;;;3.10;2.92;;;3.00;99.90;;;;;;5056383;28;20235;-80
2024/02/25 04:37:54;;;;;;;5.20;2.92;;;3.00;99.90;;;;;;5057144;28;20200;-79
2024/02/25 04:40:21;;;;;;;2.80;2.67;;;3.00;99.90;;;;;;5060414;28;20196;-78
2024/02/25 04:42:49;;;;;;;3.78;3.58;;;2.80;99.90;;;;;;5046521;28;20263;-80
2024/02/25 04:45:16;;;;;;;8.93;8.32;;;2.60;99.90;;;;;;5056897;28;20558;-78
2024/02/25 04:47:43;;;;;;;13.82;4.35;;;2.60;99.90;;;;;;5065744;28;20270;-79
2024/02/25 04:50:10;;;;;;;4.60;4.20;;;2.60;99.90;;;;;;5054511;28;20203;-82
2024/02/25 04:52:37;;;;;;;4.90;4.53;;;2.50;99.90;;;;;;5060926;28;20516;-81
2024/02/25 04:55:04;;;;;;;3.72;3.42;;;2.50;99.90;;;;;;5053189;28;20267;-79
2024/02/25 04:57:31;;;;;;;5.53;5.10;;;2.50;99.90;;;;;;5055252;28;20208;-81
2024/02/25 04:59:58;;;;;;;2.55;2.10;;;2.50;99.90;;;;;;5060420;28;20203;-80
2024/02/25 05:02:26;;;;;;;8.10;4.18;;;2.30;99.90;;;;;;5061985;28;20199;-81
2024/02/25 05:04:53;;;;;;;5.10;4.65;;;2.30;99.90;;;;;;5051386;28;20203;-81
2024/02/25 05:07:20;;;;;;;2.03;1.92;;;2.30;99.90;;;;;;5051284;28;20245;-80
2024/02/25 05:09:47;;;;;;;6.68;6.03;;;2.50;99.90;;;;;;5058300;28;20203;-79
2024/02/25 05:12:16;;;;;;;2.38;2.17;;;2.40;99.90;;;;;;5050687;28;20540;-80
2024/02/25 05:14:43;;;;;;;5.55;5.15;;;2.60;99.90;;;;;;5060925;28;20338;-80
2024/02/25 05:17:10;;;;;;;5.85;5.55;;;2.70;99.90;;;;;;5057337;28;20274;-81
2024/02/25 05:19:38;;;;;;;3.80;2.53;;;2.70;99.90;;;;;;5061892;28;20197;-81
2024/02/25 05:22:05;;;;;;;3.33;3.13;;;2.80;99.90;;;;;;5054335;28;20271;-79
2024/02/25 05:24:32;;;;;;;16.70;7.22;;;2.90;99.90;;;;;;5050596;28;20204;-80
2024/02/25 05:27:00;;;;;;;4.78;4.47;;;2.80;99.90;;;;;;5058951;28;20243;-80
2024/02/25 05:29:27;;;;;;;8.35;5.85;;;2.80;99.90;;;;;;5054009;28;20220;-80
2024/02/25 05:31:54;;;;;;;2.97;2.78;;;2.80;99.90;;;;;;5059611;28;20200;-80
2024/02/25 05:34:21;;;;;;;3.17;2.97;;;2.80;99.90;;;;;;5063004;28;20200;-80
2024/02/25 05:36:49;;;;;;;3.08;2.88;;;2.60;99.90;;;;;;5043697;28;20496;-80
2024/02/25 05:39:16;;;;;;;5.43;5.00;;;2.50;99.90;;;;;;5051677;28;20264;-80
2024/02/25 05:41:43;;;;;;;4.30;3.90;;;2.60;99.90;;;;;;5055156;28;20239;-81
2024/02/25 05:44:11;;;;;;;4.85;4.55;;;2.40;99.90;;;;;;5061536;28;20514;-81
2024/02/25 05:46:38;;;;;;;2.88;2.45;;;2.40;99.90;;;;;;5052425;28;20291;-81
2024/02/25 05:49:07;;;;;;;4.28;4.07;;;2.50;99.90;;;;;;5064534;28;20202;-80
2024/02/25 05:51:36;;;;;;;3.35;3.15;;;2.40;99.90;;;;;;5052064;28;20192;-80
2024/02/25 05:54:03;;;;;;;3.22;2.78;;;2.40;99.90;;;;;;5053669;28;20263;-81
2024/02/25 05:56:31;;;;;;;2.00;1.90;;;2.30;99.90;;;;;;5064438;28;20204;-80
2024/02/25 05:58:57;;;;;;;5.53;5.22;;;2.50;99.90;;;;;;5067711;28;20224;-80
2024/02/25 06:01:24;;;;;;;4.35;1.63;;;2.50;99.90;;;;;;5065449;28;20189;-81
2024/02/25 06:03:51;;;;;;;7.05;2.50;;;2.50;99.90;;;;;;5074235;28;20227;-79
2024/02/25 06:06:18;;;;;;;2.42;2.33;;;2.60;99.90;;;;;;5067942;28;20215;-81
2024/02/25 06:08:45;;;;;;;3.30;2.90;;;2.90;99.90;;;;;;5052552;28;20202;-81
2024/02/25 06:11:12;;;;;;;6.43;5.88;;;2.70;99.90;;;;;;5049136;28;20216;-81
2024/02/25 06:13:40;;;;;;;11.30;5.78;;;2.80;99.90;;;;;;5043795;28;20497;-81
2024/02/25 06:16:07;;;;;;;3.70;3.47;;;2.80;99.90;;;;;;5047215;28;20246;-80
2024/02/25 06:18:34;;;;;;;3.53;3.33;;;2.90;99.90;;;;;;5038454;28;20255;-81
2024/02/25 06:21:01;;;;;;;3.42;3.20;;;3.00;99.90;;;;;;5042975;28;20230;-79
2024/02/25 06:23:35;;;;;;;6.70;6.25;;;3.10;99.90;;;;;;5053527;28;20205;-81
2024/02/25 06:26:13;;;;;;;9.38;5.38;;;3.60;99.90;;;;;;5046358;28;20216;-81
2024/02/25 06:28:40;;;;;;;6.50;5.93;;;3.90;99.90;;;;;;5056852;28;20230;-80
2024/02/25 06:31:08;;;;;;;5.93;5.43;;;4.20;99.90;;;;;;5053114;28;20306;-79
2024/02/25 06:33:36;;;;;;;7.55;5.68;;;3.80;99.90;;;;;;5054304;28;20485;-81
2024/02/25 06:36:03;;;;;;;4.65;4.38;;;3.70;99.90;;;;;;5045493;28;20254;-80
2024/02/25 06:38:30;;;;;;;4.20;3.38;;;3.70;99.90;;;;;;5052963;28;20266;-80
2024/02/25 06:40:58;;;;;;;6.13;5.50;;;3.70;99.90;;;;;;5057681;28;20196;-79
2024/02/25 06:43:25;;;;;;;10.18;8.40;;;3.70;99.90;;;;;;5052663;28;20547;-80
2024/02/25 06:45:52;;;;;;;4.47;4.10;;;3.60;99.90;;;;;;5055082;28;20251;-80
2024/02/25 06:48:20;;;;;;;7.05;6.32;;;3.80;99.90;;;;;;5039402;28;20231;-79
2024/02/25 06:50:47;;;;;;;3.45;3.25;;;4.20;99.90;;;;;;5044424;28;20266;-78
2024/02/25 06:53:14;;;;;;;2.08;1.88;;;4.00;99.90;;;;;;5049114;28;20218;-79
2024/02/25 06:55:41;;;;;;;5.35;4.32;;;3.90;99.90;;;;;;5042816;28;20219;-78
2024/02/25 06:58:08;;;;;;;5.22;4.82;;;4.00;99.90;;;;;;5046501;28;20232;-79
2024/02/25 07:00:38;;;;;;;11.55;8.07;;;4.20;99.90;;;;;;5046574;28;20239;-81
2024/02/25 07:03:05;;;;;;;11.20;7.57;;;4.40;99.90;;;;;;5045644;28;20204;-80
2024/02/25 07:05:33;;;;;;;4.15;2.78;;;4.60;99.90;;;;;;5041563;28;20201;-78
2024/02/25 07:08:00;;;;;;;7.70;7.32;;;4.80;99.90;;;;;;5056194;28;20436;-79
2024/02/25 07:10:27;;;;;;;8.57;7.30;;;5.10;99.90;;;;;;5048426;28;20204;-79
2024/02/25 07:12:55;;;;;;;2.72;2.63;;;5.20;99.90;;;;;;5048480;28;20196;-80
2024/02/25 07:15:22;;;;;;;6.25;5.85;;;5.50;99.90;;;;;;5046803;28;20208;-80
2024/02/25 07:17:52;;;;;;;5.32;4.93;;;5.60;99.90;;;;;;5054721;28;20211;-80
2024/02/25 07:20:20;;;;;;;5.68;5.38;;;6.20;99.90;;;;;;5035083;28;20260;-80
2024/02/25 07:22:47;;;;;;;3.65;3.45;;;6.00;99.90;;;;;;5039737;28;20366;-78
2024/02/25 07:25:14;;;;;;;8.45;6.93;;;5.80;99.90;;;;;;5045460;28;20224;-79
2024/02/25 07:27:41;;;;;;;3.20;3.08;;;5.70;99.90;;;;;;5038515;28;20547;-82
2024/02/25 07:30:08;;;;;;;2.83;2.63;;;6.20;99.90;;;;;;5040742;28;20432;-79
2024/02/25 07:32:35;;;;;;;2.13;1.95;;;6.60;99.90;;;;;;5048148;28;20196;-78
2024/02/25 07:35:03;;;;;;;2.47;2.38;;;7.30;99.90;;;;;;5048286;28;20196;-78
2024/02/25 07:37:30;;;;;;;4.70;4.20;;;7.60;99.90;;;;;;5056962;28;20207;-79
2024/02/25 07:39:57;;;;;;;6.07;5.75;;;8.60;99.90;;;;;;5050205;28;20240;-78
2024/02/25 07:42:23;;;;;;;3.45;3.30;;;9.90;99.90;;;;;;5043555;28;20222;-78
2024/02/25 07:44:51;;;;;;;4.20;3.08;;;10.00;99.90;;;;;;5049092;28;20231;-77
2024/02/25 07:47:18;;;;;;;1.45;1.45;;;10.00;99.90;;;;;;5040996;28;20224;-78
2024/02/25 07:49:45;;;;;;;5.70;4.78;;;10.50;99.90;;;;;;5046652;28;20235;-79
2024/02/25 07:52:12;;;;;;;2.58;2.47;;;10.40;99.90;;;;;;5052672;28;20205;-78
2024/02/25 07:54:39;;;;;;;1.27;1.25;;;11.50;99.90;;;;;;5044378;28;20226;-79
2024/02/25 07:57:06;;;;;;;3.40;3.17;;;11.80;99.90;;;;;;5053618;28;20220;-78
2024/02/25 07:59:33;;;;;;;5.00;4.72;;;12.40;99.90;;;;;;5046837;28;20201;-78
2024/02/25 08:02:00;;;;;;;4.63;4.33;;;13.00;99.90;;;;;;5032516;28;20234;-78
2024/02/25 08:04:27;;;;;;;4.03;3.67;;;13.30;99.90;;;;;;5044353;28;20512;-79
2024/02/25 08:06:54;;;;;;;2.70;2.60;;;13.30;99.90;;;;;;5052749;28;20501;-78
2024/02/25 08:09:21;;;;;;;2.70;2.50;;;13.90;99.90;;;;;;5047594;28;20441;-78
2024/02/25 08:11:48;;;;;;;3.83;3.53;;;12.70;99.90;;;;;;5053520;28;20419;-78
2024/02/25 08:14:15;;;;;;;2.83;2.67;;;12.70;99.90;;;;;;5057224;28;20434;-79
2024/02/25 08:16:42;;;;;;;3.53;3.33;;;13.20;99.90;;;;;;5043001;28;20421;-80
2024/02/25 08:19:09;;;;;;;1.87;1.77;;;13.70;99.90;;;;;;5033312;28;20613;-81
2024/02/25 08:21:39;;;;;;;4.67;4.27;;;13.20;99.90;;;;;;5039899;28;20441;-80
2024/02/25 08:24:08;;;;;;;3.03;2.90;;;13.40;99.90;;;;;;5039638;28;20592;-80
2024/02/25 08:26:35;;;;;;;1.73;1.63;;;13.10;99.90;;;;;;5046026;28;20459;-79
2024/02/25 08:29:02;;;;;;;1.97;1.87;;;12.90;99.90;;;;;;5047448;28;20439;-81
2024/02/25 08:31:29;;;;;;;5.93;5.23;;;13.00;99.90;;;;;;5041405;28;20448;-79
2024/02/25 08:33:56;;;;;;;2.33;2.17;;;12.20;99.90;;;;;;5046967;28;20465;-79
2024/02/25 08:36:23;;;;;;;2.60;2.40;;;11.70;99.90;;;;;;5045387;28;20439;-78
2024/02/25 08:38:50;;;;;;;2.20;2.00;;;12.40;99.90;;;;;;5046852;28;20451;-78
2024/02/25 08:41:23;;;;;;;1.50;1.50;;;12.90;99.90;;;;;;5043507;28;20439;-78
2024/02/25 08:43:50;;;;;;;2.70;2.60;;;13.10;99.90;;;;;;5045078;28;20413;-78
2024/02/25 08:46:17;;;;;;;3.70;3.50;;;12.40;99.90;;;;;;5045220;28;20444;-79
2024/02/25 08:48:44;;;;;;;1.23;1.23;;;11.60;99.90;;;;;;5042018;28;20452;-78
2024/02/25 08:51:11;;;;;;;3.40;3.20;;;10.80;99.90;;;;;;5042584;28;20804;-77
2024/02/25 08:53:38;;;;;;;3.87;3.67;;;10.60;99.90;;;;;;5034921;28;21656;-78
2024/02/25 08:56:06;;;;;;;2.10;1.87;;;10.70;99.90;;;;;;5036605;28;20417;-78
2024/02/25 08:58:33;;;;;;;1.83;1.73;;;10.80;99.90;;;;;;5038686;28;20443;-79
2024/02/25 09:01:00;;;;;;;7.23;6.73;;;10.90;99.90;;;;;;5053640;28;20478;-78
2024/02/25 09:03:27;;;;;;;12.60;4.13;;;11.00;99.90;;;;;;5038815;28;20420;-77
2024/02/25 09:06:08;;;;;;;2.23;2.13;;;10.30;99.90;;;;;;5046751;28;20623;-78
2024/02/25 09:08:38;;;;;;;4.97;4.50;;;10.80;99.90;;;;;;5040074;28;20469;-80
2024/02/25 09:11:05;;;;;;;3.67;3.37;;;10.80;99.90;;;;;;5035134;28;20419;-79
2024/02/25 09:13:31;;;;;;;2.60;2.40;;;11.10;99.90;;;;;;5044857;28;20413;-81
2024/02/25 09:15:58;;;;;;;1.77;1.67;;;11.30;99.90;;;;;;5040947;28;20475;-81
2024/02/25 09:18:26;;;;;;;1.30;1.30;;;11.30;99.90;;;;;;5048561;28;20457;-78
2024/02/25 09:20:58;;;;;;;3.57;3.37;;;11.50;99.90;;;;;;5045064;28;20421;-78
2024/02/25 09:23:25;;;;;;;1.17;1.17;;;11.80;99.90;;;;;;5048589;28;20479;-79
2024/02/25 09:25:52;;;;;;;1.30;1.20;;;11.70;99.90;;;;;;5038588;28;20412;-81
2024/02/25 09:28:21;;;;;;;2.17;2.07;;;11.70;99.90;;;;;;5048749;28;20486;-80
2024/02/25 09:30:50;;;;;;;2.83;2.63;;;11.70;99.90;;;;;;5060890;28;20399;-80
2024/02/25 09:33:18;;;;;;;1.63;1.53;;;11.50;99.90;;;;;;5055409;28;20412;-80
2024/02/25 09:35:45;;;;;;;1.60;1.53;;;11.40;99.90;;;;;;5040705;28;20495;-79
2024/02/25 09:38:13;;;;;;;2.50;1.73;;;11.10;99.90;;;;;;5048005;28;20438;-78
2024/02/25 09:40:40;;;;;;;2.17;2.07;;;11.20;99.90;;;;;;5035216;28;20447;-78
2024/02/25 09:43:12;;;;;;;1.93;1.83;;;11.10;99.90;;;;;;5044189;28;20407;-78
2024/02/25 09:45:42;;;;;;;1.08;1.08;;;10.70;99.90;;;;;;5046783;28;20700;-77
2024/02/25 09:48:10;;;;;;;1.42;1.40;;;10.70;99.90;;;;;;5042289;28;20318;-79
2024/02/25 09:50:42;;;;;;;0.82;0.82;;;11.00;99.90;;;;;;5040294;28;20217;-78
2024/02/25 09:53:11;;;;;;;0.70;0.70;;;11.50;99.90;;;;;;5039050;28;20209;-78
2024/02/25 09:55:38;;;;;;;0.90;0.90;;;11.60;99.90;;;;;;5033636;28;20204;-79
2024/02/25 09:58:06;;;;;;;0.95;0.95;;;11.70;99.90;;;;;;5043249;28;20262;-79
2024/02/25 10:00:33;;;;;;;0.80;0.80;;;11.70;99.90;;;;;;5038221;28;20198;-79
2024/02/25 10:03:01;;;;;;;0.90;0.90;;;11.50;99.90;;;;;;5046174;28;20269;-79
2024/02/25 10:05:28;;;;;;;0.75;0.75;;;11.40;99.90;;;;;;5042360;28;20215;-79
2024/02/25 10:08:07;;;;;;;2.95;2.35;;;11.40;99.90;;;;;;5046197;28;20222;-81
2024/02/25 10:10:34;;;;;;;7.03;6.53;;;11.50;99.90;;;;;;5042496;28;20249;-80
2024/02/25 10:13:03;;;;;;;0.70;0.70;;;11.60;99.90;;;;;;5041089;28;20204;-78
2024/02/25 10:15:31;;;;;;;6.63;6.10;;;11.50;99.90;;;;;;5054684;28;20200;-82
2024/02/25 10:17:58;;;;;;;1.80;1.70;;;11.60;99.90;;;;;;5046213;28;20502;-80
2024/02/25 10:20:28;;;;;;;0.80;0.80;;;11.60;99.90;;;;;;5044897;28;20213;-80
2024/02/25 10:23:15;;;;;;;5.88;2.08;;;11.80;99.90;;;;;;5051315;28;20212;-80
2024/02/25 10:25:43;;;;;;;1.00;1.00;;;11.60;99.90;;;;;;5048857;28;20236;-76
2024/02/25 10:28:16;;;;;;;0.80;0.80;;;12.10;99.90;;;;;;5050478;28;20291;-79
2024/02/25 10:31:00;;;;;;;1.25;1.25;;;11.40;99.90;;;;;;5053285;28;20476;-79
2024/02/25 10:33:27;;;;;;;1.35;1.25;;;11.70;99.90;;;;;;5048947;28;20565;-80
2024/02/25 10:36:06;;;;;;;0.90;0.90;;;11.90;99.90;;;;;;5054019;28;20381;-80
2024/02/25 10:38:37;;;;;;;0.65;0.65;;;11.90;99.90;;;;;;5049761;28;20216;-80
2024/02/25 10:41:10;;;;;;;0.80;0.80;;;11.90;99.90;;;;;;5049040;28;20208;-81
2024/02/25 10:43:38;;;;;;;0.60;0.60;;;11.40;99.90;;;;;;5053292;28;20280;-81
2024/02/25 10:46:28;;;;;;;1.50;1.33;;;11.40;99.90;;;;;;5051617;28;20240;-79
2024/02/25 10:48:58;;;;;;;0.80;0.80;;;11.50;99.90;;;;;;5049447;28;20206;-79
2024/02/25 10:51:26;;;;;;;0.60;0.60;;;11.60;99.90;;;;;;5072276;28;20208;-80
2024/02/25 10:53:55;;;;;;;1.45;1.45;;;11.60;99.90;;;;;;5051044;28;20249;-80
2024/02/25 10:56:22;;;;;;;2.28;2.08;;;11.90;99.90;;;;;;5064236;28;20196;-81
2024/02/25 10:58:49;;;;;;;0.57;0.57;;;11.60;99.90;;;;;;5044387;28;20204;-80
2024/02/25 11:01:22;;;;;;;0.60;0.60;;;11.70;99.90;;;;;;5048715;28;20216;-79
2024/02/25 11:03:50;;;;;;;0.50;0.50;;;11.90;99.90;;;;;;5047329;28;20283;-79
2024/02/25 11:06:33;;;;;;;0.80;0.80;;;12.10;99.90;;;;;;5046276;28;20268;-81
2024/02/25 11:09:14;;;;;;;0.50;0.50;;;11.90;99.90;;;;;;5043743;28;20649;-79
2024/02/25 11:11:43;;;;;;;2.85;2.60;;;11.80;99.90;;;;;;5047935;28;21465;-78
2024/02/25 11:14:35;;;;;;;1.88;1.77;;;11.80;99.90;;;;;;5050551;28;20203;-79
2024/02/25 11:17:03;;;;;;;1.40;1.40;;;11.90;99.90;;;;;;5053065;28;20223;-78
2024/02/25 11:19:31;;;;;;;1.02;1.02;;;11.80;99.90;;;;;;5045226;28;20205;-76
2024/02/25 11:21:58;;;;;;;2.78;2.58;;;11.80;99.90;;;;;;5037391;28;20542;-79
2024/02/25 11:24:47;;;;;;;0.50;0.50;;;12.00;99.90;;;;;;5042669;28;20215;-80
2024/02/25 11:27:17;;;;;;;1.43;1.33;;;12.00;99.90;;;;;;5043969;28;20905;-78
2024/02/25 11:29:45;;;;;;;0.80;0.80;;;12.00;99.90;;;;;;5042191;28;20466;-80
2024/02/25 11:32:34;;;;;;;0.80;0.80;;;12.10;99.90;;;;;;5046574;28;20435;-80
2024/02/25 11:35:02;;;;;;;1.45;1.35;;;12.10;99.90;;;;;;5041312;28;20272;-79
2024/02/25 11:37:31;;;;;;;0.83;0.83;;;12.00;99.90;;;;;;5044794;28;20400;-77
2024/02/25 11:39:58;;;;;;;0.80;0.80;;;12.20;99.90;;;;;;5047206;28;20514;-81
2024/02/25 11:42:25;;;;;;;3.03;2.90;;;12.30;99.90;;;;;;5046439;28;20514;-80
2024/02/25 11:44:52;;;;;;;1.00;1.00;;;12.10;99.90;;;;;;5043102;28;20450;-79
2024/02/25 11:47:19;;;;;;;0.90;0.90;;;11.90;99.90;;;;;;5039858;28;20280;-76
2024/02/25 11:49:46;;;;;;;1.47;1.37;;;11.80;99.90;;;;;;5037612;28;20241;-80
2024/02/25 11:52:13;;;;;;;4.32;1.67;;;11.70;99.90;;;;;;5042643;28;20495;-79
2024/02/25 11:54:40;;;;;;;1.00;1.00;;;12.00;99.90;;;;;;5045058;28;20557;-79
2024/02/25 11:57:07;;;;;;;0.60;0.60;;;11.80;99.90;;;;;;5045218;28;20204;-78
2024/02/25 11:59:35;;;;;;;2.80;2.70;;;11.70;99.90;;;;;;5047176;28;20205;-78
2024/02/25 12:02:03;;;;;;;0.50;0.50;;;11.80;99.90;;;;;;5045537;28;20232;-79
2024/02/25 12:04:31;;;;;;;0.80;0.80;;;12.00;99.90;;;;;;5045271;28;20255;-79
2024/02/25 12:07:00;;;;;;;0.70;0.70;;;12.20;99.90;;;;;;5047021;28;20204;-77
2024/02/25 12:09:27;;;;;;;0.90;0.90;;;12.10;99.90;;;;;;5046107;28;20210;-82
2024/02/25 12:11:54;;;;;;;1.00;1.00;;;12.10;99.90;;;;;;5044213;28;20522;-82
2024/02/25 12:14:21;;;;;;;1.00;1.00;;;12.20;99.90;;;;;;5047950;28;20213;-81
2024/02/25 12:16:50;;;;;;;2.88;1.92;;;12.30;99.90;;;;;;5046139;28;20214;-79
2024/02/25 12:19:18;;;;;;;0.70;0.70;;;12.40;99.90;;;;;;5040156;28;20212;-79
2024/02/25 12:21:51;;;;;;;0.87;0.87;;;12.50;99.90;;;;;;5045160;28;20215;-82
2024/02/25 12:24:18;;;;;;;0.60;0.60;;;12.60;99.90;;;;;;5039476;28;20416;-80
2024/02/25 12:26:54;;;;;;;0.60;0.60;;;12.80;99.90;;;;;;5048358;28;20458;-82
2024/02/25 12:29:24;;;;;;;0.60;0.60;;;12.40;99.90;;;;;;5044926;28;20761;-80
2024/02/25 12:31:51;;;;;;;0.90;0.90;;;12.50;99.90;;;;;;5048915;28;20406;-81
2024/02/25 12:34:18;;;;;;;0.70;0.70;;;12.40;99.90;;;;;;5045945;28;20509;-79
2024/02/25 12:36:47;;;;;;;1.17;1.17;;;12.10;99.90;;;;;;5039655;28;20437;-80
2024/02/25 12:39:18;;;;;;;0.70;0.70;;;12.10;99.90;;;;;;5043906;28;20492;-79
2024/02/25 12:41:53;;;;;;;1.13;1.03;;;12.20;99.90;;;;;;5047324;28;20390;-79
2024/02/25 12:44:20;;;;;;;1.60;1.50;;;12.10;99.90;;;;;;5052896;28;20412;-82
2024/02/25 12:46:47;;;;;;;1.47;1.37;;;12.10;99.90;;;;;;5048268;28;20273;-78
2024/02/25 12:49:15;;;;;;;0.90;0.90;;;12.00;99.90;;;;;;5059281;28;20699;-78
2024/02/25 12:51:43;;;;;;;0.60;0.60;;;12.00;99.90;;;;;;5050654;28;20207;-81
2024/02/25 12:54:10;;;;;;;1.17;1.08;;;12.20;99.90;;;;;;5042337;28;20463;-81
2024/02/25 12:56:41;;;;;;;7.18;1.95;;;12.30;99.90;;;;;;5041152;28;20264;-78
2024/02/25 12:59:11;;;;;;;2.85;2.65;;;12.10;99.90;;;;;;5043378;28;20202;-81